Aérodrome :
LOGIN :

S'inscrire | Disclaimer

   EN    FR    IT 

 










Légende :    VFR   VFR Marginal   IFR   IFR Intensif   IFR Très Intensif
Visi : 
Plafond : 
>= 8 km
>= 3000ft
5 à 8 km
1000 à 3000 ft
1500m à 5 km
500 à 1000 ft
800 à 1500m
200 à 500 ft
< 800m
< 200 ft
Symboles :   Orages  Brouillard  Fortes neiges  Fortes précipitations  Vent > 20 kt
SIGMETs :   Divers  Orages  Givrage  Turbulence  Onde Orograph.  Cendres Volcan.






- Altitude de l'aérodrome : 479 ft
- Code IATA : KEV


EFHA - Halli

DERNIER METAR :
  • 200250Z AUTO 35009KT 310V020 9999 -SHSN OVC012 M00/M02 Q1013

METARs EXPIRÉS :
  • 200220Z AUTO 35010KT 310V010 9999 -SHSN OVC019 00/M03 Q1012
  • 200150Z AUTO 34007KT 310V020 9999 -SNRA OVC010 00/M01 Q1012
  • 200120Z AUTO 34009KT 9999 OVC009 00/M01 Q1011
  • 200050Z AUTO 34010KT 9999 OVC010 00/M01 Q1011

TAF TAF EFHA
Valide du 20 à 03h jusqu'au 20 à 12h UTC


200231Z 2003/2012 35009KT 9999 -SHSN OVC020
TEMPO 2003/2008 3000 BR BKN005
TEMPO 2008/2010 BKN007



MET'MAP, la Météo Aéronautique d'un coup d'oeil ! - Copyright ORBIFLY Décembre 2007 - Disclaimer

ORBIFLY MET'MAP TEAM :

Programmation & Développement : Alexandra Zaïnal
Sur une idée originale de : Baudouin d'Aumeries
Assistance à la programmation : Marc-Olivier Méhu
Soutien technique & logistique : Manuel Goepfert

Contact : metmap@orbifly.com




SOURCES & CREDITS :

   NOAA